Time;durP1;ratioP1;P1;durP2;ratioP2;P2;SDS_P1;SDS_P2;PMS_P1;PMS_P2;Temp;Humidity;BMP_temperature;BMP_pressure;BME280_temperature;BME280_humidity;BME280_pressure;Samples;Min_cycle;Max_cycle;Signal;HPM_P1;HPM_P2
2021/05/03 00:00:50;;;;;;;3.35;3.05;;;6.20;69.50;;;;;;5090025;28;20062;-69
2021/05/03 00:03:16;;;;;;;3.63;2.80;;;6.10;69.40;;;;;;5090573;28;20499;-68
2021/05/03 00:05:45;;;;;;;4.97;3.28;;;6.10;69.50;;;;;;5089374;28;20036;-69
2021/05/03 00:08:12;;;;;;;4.03;2.95;;;6.10;69.50;;;;;;5086046;28;20460;-69
2021/05/03 00:10:38;;;;;;;5.10;2.83;;;6.10;69.60;;;;;;5077736;28;20425;-68
2021/05/03 00:13:03;;;;;;;3.22;2.92;;;6.10;69.70;;;;;;5086794;28;20035;-69
2021/05/03 00:15:29;;;;;;;3.40;2.97;;;6.10;69.80;;;;;;5089445;28;20027;-69
2021/05/03 00:17:54;;;;;;;2.90;2.67;;;6.10;69.90;;;;;;5088025;28;20034;-68
2021/05/03 00:20:20;;;;;;;6.15;2.75;;;6.00;70.00;;;;;;5082124;28;20034;-68
2021/05/03 00:22:46;;;;;;;6.25;2.72;;;6.10;70.10;;;;;;5089429;28;20103;-69
2021/05/03 00:25:12;;;;;;;5.00;2.92;;;6.10;70.00;;;;;;5077142;28;20033;-69
2021/05/03 00:27:38;;;;;;;4.90;2.90;;;6.00;69.90;;;;;;5086399;28;20032;-69
2021/05/03 00:30:05;;;;;;;4.07;3.05;;;5.90;70.00;;;;;;5089884;28;20020;-68
2021/05/03 00:32:31;;;;;;;3.58;3.10;;;5.90;70.10;;;;;;5070304;28;20073;-69
2021/05/03 00:34:56;;;;;;;3.65;3.30;;;5.80;70.10;;;;;;5089106;28;20020;-69
2021/05/03 00:37:22;;;;;;;4.32;2.80;;;5.80;70.20;;;;;;5087669;28;20097;-69
2021/05/03 00:39:47;;;;;;;4.50;2.40;;;5.70;70.10;;;;;;5076047;28;20028;-69
2021/05/03 00:42:13;;;;;;;3.80;3.22;;;5.60;70.20;;;;;;5080749;28;20024;-68
2021/05/03 00:44:39;;;;;;;3.83;3.05;;;5.50;70.40;;;;;;5089393;28;20039;-69
2021/05/03 00:47:05;;;;;;;3.03;2.65;;;5.50;70.70;;;;;;5084149;28;20037;-69
2021/05/03 00:49:31;;;;;;;7.82;3.53;;;5.40;70.90;;;;;;5072508;28;20052;-68
2021/05/03 00:51:56;;;;;;;3.53;3.22;;;5.40;71.00;;;;;;5088028;28;20028;-69
2021/05/03 00:54:22;;;;;;;4.13;3.13;;;5.50;71.30;;;;;;5090043;28;20090;-69
2021/05/03 00:56:48;;;;;;;3.95;3.38;;;5.50;71.30;;;;;;5087733;28;20051;-69
2021/05/03 00:59:14;;;;;;;4.45;3.13;;;5.50;71.50;;;;;;5090507;28;20039;-68
2021/05/03 01:01:39;;;;;;;6.03;3.80;;;5.50;71.60;;;;;;5090145;28;20028;-68
2021/05/03 01:04:05;;;;;;;4.60;3.10;;;5.50;71.40;;;;;;5088357;28;20016;-68
2021/05/03 01:06:32;;;;;;;5.28;3.05;;;5.50;71.40;;;;;;5088905;28;20020;-69
2021/05/03 01:08:58;;;;;;;4.45;3.58;;;5.50;71.40;;;;;;5088749;28;20040;-69
2021/05/03 01:11:23;;;;;;;4.70;3.55;;;5.50;71.50;;;;;;5076939;28;20029;-69
2021/05/03 01:13:50;;;;;;;3.83;3.45;;;5.50;71.60;;;;;;5085952;28;20090;-68
2021/05/03 01:16:15;;;;;;;4.50;3.10;;;5.50;71.80;;;;;;5089225;28;20027;-69
2021/05/03 01:18:41;;;;;;;4.65;3.22;;;5.50;72.00;;;;;;5089928;28;20114;-69
2021/05/03 01:21:07;;;;;;;5.15;3.63;;;5.50;72.20;;;;;;5085544;28;20032;-68
2021/05/03 01:23:33;;;;;;;4.00;3.33;;;5.60;72.20;;;;;;5084306;28;20055;-69
2021/05/03 01:25:59;;;;;;;9.05;3.60;;;5.50;72.20;;;;;;5072217;28;20056;-69
2021/05/03 01:28:25;;;;;;;4.05;3.65;;;5.60;72.20;;;;;;5076767;28;20027;-69
2021/05/03 01:30:51;;;;;;;4.90;3.55;;;5.60;72.20;;;;;;5089812;28;20490;-68
2021/05/03 01:33:18;;;;;;;4.45;3.38;;;5.60;72.10;;;;;;5087668;28;20054;-69
2021/05/03 01:35:45;;;;;;;5.03;4.03;;;5.50;72.00;;;;;;5088721;28;20052;-68
2021/05/03 01:38:12;;;;;;;5.85;3.50;;;5.40;72.10;;;;;;5093333;28;20036;-69
2021/05/03 01:40:40;;;;;;;5.57;3.50;;;5.40;72.30;;;;;;5079701;28;20028;-68
2021/05/03 01:43:14;;;;;;;5.95;3.55;;;5.30;72.30;;;;;;5082914;28;20500;-69
2021/05/03 01:45:41;;;;;;;5.05;3.83;;;5.30;72.50;;;;;;5088473;28;20495;-69
2021/05/03 01:48:08;;;;;;;5.43;3.88;;;5.20;72.50;;;;;;5092509;28;20028;-69
2021/05/03 01:50:35;;;;;;;4.70;4.20;;;5.20;72.80;;;;;;5080015;28;20024;-69
2021/05/03 01:53:01;;;;;;;5.07;4.00;;;5.20;72.80;;;;;;5083368;28;20035;-68
2021/05/03 01:55:27;;;;;;;5.45;3.65;;;5.20;72.90;;;;;;5100250;28;20040;-68
2021/05/03 01:57:52;;;;;;;6.93;3.70;;;5.10;73.00;;;;;;5078523;28;20111;-68
2021/05/03 02:00:18;;;;;;;7.20;3.97;;;5.20;73.10;;;;;;5084771;28;20431;-69
2021/05/03 02:02:48;;;;;;;8.80;3.95;;;5.20;73.10;;;;;;5092435;28;20032;-69
2021/05/03 02:05:23;;;;;;;6.05;3.90;;;5.10;73.10;;;;;;5091828;28;20104;-68
2021/05/03 02:08:03;;;;;;;6.75;3.75;;;5.20;73.50;;;;;;5092770;28;20039;-68
2021/05/03 02:10:30;;;;;;;4.90;3.50;;;5.20;73.70;;;;;;5092438;28;20028;-69
2021/05/03 02:12:56;;;;;;;3.95;3.55;;;5.20;73.40;;;;;;5091943;28;20031;-69
2021/05/03 02:15:23;;;;;;;6.30;3.55;;;5.20;73.40;;;;;;5089552;28;20016;-69
2021/05/03 02:17:48;;;;;;;4.75;3.47;;;5.20;73.20;;;;;;5092230;28;20441;-69
2021/05/03 02:20:16;;;;;;;4.88;3.78;;;5.20;73.10;;;;;;5092353;28;20065;-69
2021/05/03 02:22:42;;;;;;;4.30;3.50;;;5.20;73.10;;;;;;5077065;28;20033;-69
2021/05/03 02:25:09;;;;;;;5.20;3.50;;;5.10;73.10;;;;;;5086552;28;20549;-69
2021/05/03 02:27:34;;;;;;;5.57;3.42;;;5.10;73.10;;;;;;5087396;28;20028;-69
2021/05/03 02:30:00;;;;;;;3.70;3.40;;;5.00;73.20;;;;;;5082190;28;20054;-69
2021/05/03 02:32:25;;;;;;;5.22;3.80;;;5.00;73.30;;;;;;5076496;28;20737;-68
2021/05/03 02:34:51;;;;;;;4.50;3.60;;;5.00;73.40;;;;;;5091138;28;20028;-68
2021/05/03 02:37:17;;;;;;;6.13;3.65;;;5.00;73.50;;;;;;5099000;22;20051;-69
2021/05/03 02:39:43;;;;;;;4.78;3.67;;;5.00;73.60;;;;;;5082644;28;20023;-68
2021/05/03 02:42:13;;;;;;;6.95;3.95;;;5.00;73.60;;;;;;5086511;28;20024;-68
2021/05/03 02:44:39;;;;;;;4.75;3.15;;;5.00;73.60;;;;;;5089394;28;20051;-68
2021/05/03 02:47:09;;;;;;;5.78;3.47;;;5.00;73.50;;;;;;5089329;28;20051;-69
2021/05/03 02:49:35;;;;;;;4.88;3.83;;;5.00;73.70;;;;;;5068461;28;20127;-68
2021/05/03 02:52:02;;;;;;;5.80;3.70;;;5.00;73.50;;;;;;5071969;28;20047;-68
2021/05/03 02:54:28;;;;;;;5.47;3.88;;;4.90;73.50;;;;;;5088601;28;20028;-68
2021/05/03 02:56:53;;;;;;;7.60;4.28;;;4.90;73.70;;;;;;5085071;28;20057;-68
2021/05/03 02:59:19;;;;;;;8.18;4.03;;;4.90;73.80;;;;;;5090657;28;20156;-68
2021/05/03 03:01:45;;;;;;;8.23;4.53;;;4.90;73.70;;;;;;5072591;28;20024;-68
2021/05/03 03:04:10;;;;;;;7.20;4.97;;;4.80;73.80;;;;;;5086302;28;20035;-68
2021/05/03 03:06:36;;;;;;;4.50;4.10;;;4.80;73.80;;;;;;5078639;28;20035;-68
2021/05/03 03:09:04;;;;;;;5.25;4.20;;;4.70;73.90;;;;;;5090827;28;20028;-67
2021/05/03 03:11:29;;;;;;;5.68;4.28;;;4.70;74.20;;;;;;5081567;28;20718;-68
2021/05/03 03:13:55;;;;;;;8.05;4.22;;;4.70;74.30;;;;;;5068780;28;20020;-68
2021/05/03 03:16:22;;;;;;;5.32;4.22;;;4.80;74.50;;;;;;5086025;28;20105;-68
2021/05/03 03:18:48;;;;;;;9.68;4.50;;;4.80;74.50;;;;;;5096943;28;20027;-67
2021/05/03 03:21:15;;;;;;;7.55;4.22;;;4.80;74.60;;;;;;5107764;28;20015;-68
2021/05/03 03:23:40;;;;;;;4.88;4.40;;;4.80;74.60;;;;;;5092698;28;20036;-68
2021/05/03 03:26:06;;;;;;;8.23;4.43;;;4.80;74.70;;;;;;5070548;28;20039;-68
2021/05/03 03:28:31;;;;;;;7.03;4.60;;;4.80;74.50;;;;;;5082337;28;20061;-68
2021/05/03 03:30:57;;;;;;;7.15;4.85;;;4.70;74.30;;;;;;5088039;28;20022;-68
2021/05/03 03:33:23;;;;;;;7.00;5.07;;;4.70;74.50;;;;;;5072753;28;20086;-68
2021/05/03 03:35:48;;;;;;;6.60;5.18;;;4.70;74.60;;;;;;5070562;28;20128;-69
2021/05/03 03:38:14;;;;;;;7.43;5.20;;;4.70;74.80;;;;;;5087505;28;20028;-68
2021/05/03 03:40:40;;;;;;;7.72;5.47;;;4.70;74.80;;;;;;5090511;28;20384;-68
2021/05/03 03:43:05;;;;;;;10.20;5.47;;;4.70;74.90;;;;;;5071123;28;20384;-68
2021/05/03 03:45:31;;;;;;;8.68;5.60;;;4.70;74.90;;;;;;5090090;28;20086;-68
2021/05/03 03:47:57;;;;;;;10.25;5.85;;;4.70;74.90;;;;;;5096520;28;20052;-68
2021/05/03 03:50:22;;;;;;;6.68;5.18;;;4.60;74.90;;;;;;5072445;28;20024;-68
2021/05/03 03:52:48;;;;;;;6.20;4.93;;;4.60;74.90;;;;;;5087572;28;20096;-68
2021/05/03 03:55:14;;;;;;;6.45;5.13;;;4.60;75.40;;;;;;5087594;28;20028;-68
2021/05/03 03:57:39;;;;;;;12.20;5.82;;;4.60;75.10;;;;;;5088845;28;20452;-68
2021/05/03 04:00:06;;;;;;;8.38;5.43;;;4.50;75.20;;;;;;5071751;28;20465;-68
2021/05/03 04:02:34;;;;;;;8.15;5.63;;;4.50;75.80;;;;;;5070193;28;20062;-67
2021/05/03 04:07:37;;;;;;;10.95;5.85;;;4.60;75.60;;;;;;5089068;28;20039;-68
2021/05/03 04:25:58;;;;;;;9.30;6.75;;;4.30;75.60;;;;;;5086517;28;20102;-68
2021/05/03 04:28:24;;;;;;;8.60;6.40;;;4.30;75.70;;;;;;5089683;28;20028;-68
2021/05/03 04:30:49;;;;;;;9.30;6.13;;;4.20;75.80;;;;;;5097110;28;20060;-67
2021/05/03 04:33:15;;;;;;;8.90;6.15;;;4.20;76.00;;;;;;5062777;28;20447;-67
2021/05/03 04:35:41;;;;;;;9.32;6.38;;;4.30;76.20;;;;;;5087486;28;20067;-67
2021/05/03 04:38:06;;;;;;;8.82;6.10;;;4.30;76.40;;;;;;5089556;28;20399;-67
2021/05/03 04:40:32;;;;;;;11.43;6.18;;;4.30;76.40;;;;;;5089264;28;20035;-67
2021/05/03 04:42:57;;;;;;;10.25;6.05;;;4.40;76.30;;;;;;5086395;28;20122;-67
2021/05/03 04:45:23;;;;;;;10.18;6.22;;;4.40;76.30;;;;;;5069495;28;20173;-67
2021/05/03 04:47:48;;;;;;;11.65;5.82;;;4.40;76.00;;;;;;5109008;28;20102;-67
2021/05/03 04:50:14;;;;;;;9.50;6.20;;;4.30;76.10;;;;;;5087715;28;20036;-67
2021/05/03 04:52:40;;;;;;;7.43;6.00;;;4.40;76.40;;;;;;5086500;28;20024;-68
2021/05/03 04:55:06;;;;;;;8.98;5.75;;;4.30;76.30;;;;;;5088355;28;20092;-68
2021/05/03 04:57:33;;;;;;;8.70;6.18;;;4.30;76.40;;;;;;5086236;28;20066;-68
2021/05/03 04:59:58;;;;;;;8.27;5.72;;;4.40;76.70;;;;;;5084985;28;20392;-67
2021/05/03 05:02:24;;;;;;;9.15;6.25;;;4.40;76.80;;;;;;5072942;28;20107;-68
2021/05/03 05:04:50;;;;;;;7.38;5.50;;;4.60;77.10;;;;;;5069453;28;20028;-67
2021/05/03 05:07:16;;;;;;;7.03;5.70;;;4.70;77.30;;;;;;5087088;28;20038;-67
2021/05/03 05:09:41;;;;;;;9.60;5.88;;;4.80;77.30;;;;;;5088803;28;20398;-68
2021/05/03 05:12:07;;;;;;;9.35;5.72;;;5.00;77.40;;;;;;5100037;28;20019;-67
2021/05/03 05:14:33;;;;;;;8.25;5.70;;;5.10;77.30;;;;;;5088169;28;20032;-68
2021/05/03 05:16:58;;;;;;;7.43;5.68;;;5.20;77.20;;;;;;5088061;28;20028;-68
2021/05/03 05:19:24;;;;;;;8.55;5.72;;;5.20;77.00;;;;;;5088448;28;20024;-69
2021/05/03 05:21:51;;;;;;;8.88;5.68;;;5.30;76.80;;;;;;5086445;28;20503;-69
2021/05/03 05:24:16;;;;;;;8.80;5.90;;;5.30;76.60;;;;;;5093541;28;20487;-69
2021/05/03 05:26:42;;;;;;;7.80;5.35;;;5.40;76.40;;;;;;5084954;28;20056;-69
2021/05/03 05:29:07;;;;;;;8.50;6.20;;;5.50;76.40;;;;;;5087821;28;20062;-69
2021/05/03 05:31:34;;;;;;;11.27;6.68;;;5.50;76.30;;;;;;5088141;28;20032;-69
2021/05/03 05:33:59;;;;;;;10.45;6.22;;;5.40;76.20;;;;;;5086603;28;20028;-69
2021/05/03 05:36:25;;;;;;;9.98;6.25;;;5.40;76.00;;;;;;5066491;28;20421;-69
2021/05/03 05:38:50;;;;;;;10.00;6.60;;;5.40;76.30;;;;;;5078038;28;20043;-69
2021/05/03 05:41:18;;;;;;;10.88;6.15;;;5.50;76.40;;;;;;5089411;28;20055;-70
2021/05/03 05:43:44;;;;;;;7.95;6.13;;;5.50;76.50;;;;;;5069863;28;20476;-70
2021/05/03 05:46:10;;;;;;;10.15;6.50;;;5.50;76.40;;;;;;5088426;28;20032;-69
2021/05/03 05:48:36;;;;;;;7.38;5.97;;;5.60;76.50;;;;;;5081827;28;20548;-68
2021/05/03 05:51:03;;;;;;;8.57;6.20;;;5.60;76.50;;;;;;5088166;28;20072;-69
2021/05/03 05:53:30;;;;;;;8.48;6.28;;;5.70;76.50;;;;;;5087259;28;20024;-69
2021/05/03 05:55:56;;;;;;;11.95;6.40;;;5.80;76.50;;;;;;5088403;28;20321;-69
2021/05/03 05:58:21;;;;;;;8.73;6.30;;;5.90;76.40;;;;;;5069869;28;20027;-69
2021/05/03 06:00:47;;;;;;;10.57;6.65;;;6.00;76.20;;;;;;5084306;28;20103;-70
2021/05/03 06:03:12;;;;;;;8.27;6.30;;;6.10;76.20;;;;;;5084492;28;20028;-69
2021/05/03 06:05:38;;;;;;;8.40;6.38;;;6.20;76.20;;;;;;5070194;28;20550;-69
2021/05/03 06:08:04;;;;;;;7.82;6.25;;;6.30;76.00;;;;;;5068611;28;20044;-69
2021/05/03 06:10:30;;;;;;;11.68;6.18;;;6.50;76.00;;;;;;5088993;28;20078;-69
2021/05/03 06:12:55;;;;;;;9.35;5.90;;;6.70;76.10;;;;;;5070127;28;20024;-69
2021/05/03 06:15:21;;;;;;;9.15;5.93;;;6.80;75.80;;;;;;5087835;28;20460;-68
2021/05/03 06:17:46;;;;;;;10.32;5.85;;;7.00;75.60;;;;;;5070466;28;20036;-69
2021/05/03 06:20:12;;;;;;;9.05;5.95;;;7.20;75.30;;;;;;5094705;28;20028;-69
2021/05/03 06:22:38;;;;;;;8.57;6.30;;;7.30;75.40;;;;;;5091866;28;20123;-69
2021/05/03 06:25:06;;;;;;;8.13;6.25;;;7.40;75.40;;;;;;5066451;28;20138;-69
2021/05/03 06:27:32;;;;;;;9.85;5.97;;;7.40;74.90;;;;;;5082825;28;20032;-69
2021/05/03 06:29:57;;;;;;;7.75;5.57;;;7.40;74.70;;;;;;5083810;28;20039;-70
2021/05/03 06:32:23;;;;;;;7.78;5.60;;;7.50;74.60;;;;;;5074451;28;20024;-71
2021/05/03 06:34:49;;;;;;;9.93;5.53;;;7.70;74.50;;;;;;5090714;28;20081;-69
2021/05/03 06:37:14;;;;;;;16.42;6.40;;;7.90;74.10;;;;;;5073517;28;20031;-69
2021/05/03 06:39:40;;;;;;;10.95;6.13;;;8.00;73.80;;;;;;5092067;28;20099;-69
2021/05/03 06:42:05;;;;;;;10.40;6.35;;;8.10;73.70;;;;;;5091271;28;20023;-70
2021/05/03 06:44:34;;;;;;;9.00;5.93;;;8.30;73.10;;;;;;5081566;28;20480;-69
2021/05/03 06:47:00;;;;;;;10.38;6.30;;;8.50;72.90;;;;;;5085630;28;20036;-69
2021/05/03 06:49:26;;;;;;;8.15;5.88;;;8.60;72.70;;;;;;5105108;28;20170;-69
2021/05/03 06:51:52;;;;;;;8.27;6.10;;;8.90;72.60;;;;;;5101376;28;20062;-69
2021/05/03 06:54:17;;;;;;;9.15;6.15;;;9.10;72.40;;;;;;5074088;28;20103;-69
2021/05/03 06:56:43;;;;;;;9.13;5.93;;;9.50;72.30;;;;;;5092365;28;20038;-70
2021/05/03 06:59:09;;;;;;;8.50;5.90;;;9.80;72.50;;;;;;5073521;28;20492;-70
2021/05/03 07:01:34;;;;;;;7.15;5.72;;;9.90;71.80;;;;;;5092064;28;20115;-69
2021/05/03 07:04:00;;;;;;;8.82;6.00;;;9.90;71.70;;;;;;5089554;28;20100;-69
2021/05/03 07:06:26;;;;;;;7.90;5.15;;;9.90;71.70;;;;;;5091999;28;20020;-69
2021/05/03 07:08:52;;;;;;;7.50;5.97;;;10.00;71.70;;;;;;5089793;28;20752;-69
2021/05/03 07:11:21;;;;;;;9.27;5.95;;;10.30;71.10;;;;;;5083383;28;20526;-69
2021/05/03 07:13:46;;;;;;;6.85;5.82;;;10.80;70.50;;;;;;5082812;28;20101;-69
2021/05/03 07:16:12;;;;;;;6.18;5.43;;;11.30;69.80;;;;;;5090262;28;20452;-70
2021/05/03 07:18:39;;;;;;;9.57;5.43;;;11.80;69.20;;;;;;5073754;28;20484;-69
2021/05/03 07:21:05;;;;;;;8.88;5.88;;;12.30;68.70;;;;;;5089652;28;20138;-71
2021/05/03 07:23:31;;;;;;;8.68;5.90;;;12.80;67.20;;;;;;5092071;28;20077;-70
2021/05/03 07:25:58;;;;;;;7.85;5.18;;;13.10;66.60;;;;;;5090805;28;20046;-71
2021/05/03 07:28:24;;;;;;;8.85;5.30;;;13.40;66.70;;;;;;5085325;28;20047;-69
2021/05/03 07:30:56;;;;;;;7.82;4.80;;;13.60;66.40;;;;;;5072522;28;20396;-69
2021/05/03 07:33:23;;;;;;;8.70;5.07;;;13.60;66.40;;;;;;5073314;28;20555;-70
2021/05/03 07:35:48;;;;;;;9.30;4.88;;;14.00;65.80;;;;;;5072436;28;20036;-69
2021/05/03 07:38:14;;;;;;;8.35;4.78;;;14.60;64.80;;;;;;5090211;28;20572;-69
2021/05/03 07:40:39;;;;;;;8.50;4.75;;;15.20;63.50;;;;;;5090297;28;20052;-69
2021/05/03 07:43:05;;;;;;;6.15;4.68;;;15.60;62.70;;;;;;5067464;28;20028;-70
2021/05/03 07:45:31;;;;;;;7.10;4.90;;;16.30;61.50;;;;;;5089983;28;20031;-70
2021/05/03 07:47:56;;;;;;;7.25;5.03;;;16.80;60.50;;;;;;5091847;28;20060;-70
2021/05/03 07:50:22;;;;;;;5.10;4.40;;;17.30;59.30;;;;;;5090454;28;22232;-70
2021/05/03 07:52:47;;;;;;;5.95;4.70;;;17.80;58.30;;;;;;5087299;28;20601;-70
2021/05/03 07:55:14;;;;;;;66.65;40.78;;;16.80;59.40;;;;;;5077574;28;20039;-70
2021/05/03 07:57:39;;;;;;;8.38;5.72;;;16.00;60.80;;;;;;5083296;28;20047;-69
2021/05/03 08:00:06;;;;;;;9.52;5.20;;;15.40;61.40;;;;;;5064091;28;20561;-70
2021/05/03 08:02:32;;;;;;;5.82;4.90;;;15.10;61.80;;;;;;5097859;28;20033;-69
2021/05/03 08:04:57;;;;;;;5.95;4.70;;;14.70;62.00;;;;;;5077623;28;20028;-69
2021/05/03 08:07:23;;;;;;;5.53;4.85;;;14.30;62.00;;;;;;5090465;28;20056;-69
2021/05/03 08:09:49;;;;;;;6.07;5.18;;;13.90;62.50;;;;;;5094514;28;20432;-69
2021/05/03 08:12:21;;;;;;;7.20;5.20;;;13.60;62.30;;;;;;5073814;28;20073;-69
2021/05/03 08:14:48;;;;;;;6.50;4.90;;;13.10;62.60;;;;;;5081847;28;20080;-69
2021/05/03 08:17:15;;;;;;;6.60;4.90;;;12.80;63.40;;;;;;5066383;28;20488;-69
2021/05/03 08:19:42;;;;;;;5.47;4.60;;;12.60;63.70;;;;;;5071316;28;20081;-69
2021/05/03 08:22:08;;;;;;;7.55;5.18;;;13.00;63.00;;;;;;5090109;28;20028;-70
2021/05/03 08:24:34;;;;;;;7.68;5.18;;;12.90;62.80;;;;;;5089152;28;20388;-69
2021/05/03 08:27:02;;;;;;;9.20;5.57;;;12.70;63.30;;;;;;5089402;28;20034;-69
2021/05/03 08:29:28;;;;;;;6.97;5.47;;;12.60;63.80;;;;;;5071236;28;20480;-69
2021/05/03 08:31:56;;;;;;;10.45;5.47;;;12.50;63.90;;;;;;5089388;28;20369;-70
2021/05/03 08:34:21;;;;;;;6.50;5.55;;;12.30;62.70;;;;;;5096456;28;20348;-70
2021/05/03 08:36:49;;;;;;;6.13;4.68;;;12.30;62.70;;;;;;5110314;28;20032;-69
2021/05/03 08:39:15;;;;;;;6.85;5.20;;;12.60;62.20;;;;;;5129689;22;20040;-92
2021/05/03 08:41:40;;;;;;;8.43;5.68;;;12.40;62.90;;;;;;5093867;28;20045;-91
2021/05/03 08:44:07;;;;;;;7.32;5.45;;;12.30;63.50;;;;;;5085436;28;20399;-92
2021/05/03 08:46:38;;;;;;;8.05;4.90;;;13.00;61.70;;;;;;5078143;28;20232;-91
2021/05/03 08:49:17;;;;;;;6.78;4.43;;;13.20;61.80;;;;;;5076797;28;20024;-89
2021/05/03 08:52:10;;;;;;;5.75;4.28;;;13.10;61.60;;;;;;5084053;28;20024;-92
2021/05/03 08:54:41;;;;;;;7.75;4.75;;;12.90;61.60;;;;;;5085800;28;20040;-93
2021/05/03 08:57:36;;;;;;;6.95;4.20;;;14.80;59.40;;;;;;5083767;28;20069;-93
2021/05/03 09:01:02;;;;;;;;;;;;;;;;;;;;;
2021/05/03 09:03:29;;;;;;;6.28;4.28;;;17.70;56.20;;;;;;5103826;22;20118;-68
2021/05/03 09:05:56;;;;;;;5.47;4.07;;;18.90;54.80;;;;;;5104775;27;20016;-68
2021/05/03 09:08:26;;;;;;;4.75;3.85;;;19.50;53.80;;;;;;5093551;28;20115;-68
2021/05/03 09:10:55;;;;;;;5.97;3.75;;;19.80;52.30;;;;;;5085414;28;20024;-68
2021/05/03 09:13:27;;;;;;;5.53;4.07;;;19.00;52.30;;;;;;5080856;28;20095;-68
2021/05/03 09:16:22;;;;;;;4.88;3.55;;;17.70;52.50;;;;;;5094950;28;20016;-68
2021/05/03 09:18:48;;;;;;;3.78;3.38;;;16.50;54.10;;;;;;5095035;28;20017;-68
2021/05/03 09:21:27;;;;;;;6.13;4.28;;;15.90;55.40;;;;;;5068941;28;20087;-68
2021/05/03 09:24:17;;;;;;;6.18;4.18;;;15.20;54.50;;;;;;5087143;28;20556;-68
2021/05/03 09:26:47;;;;;;;5.40;4.30;;;14.60;55.90;;;;;;5063921;28;20032;-68
2021/05/03 09:29:33;;;;;;;6.07;3.70;;;14.30;57.20;;;;;;5085480;28;20035;-69
2021/05/03 09:32:00;;;;;;;4.05;3.53;;;16.00;54.80;;;;;;5082620;28;20046;-69
2021/05/03 09:34:37;;;;;;;5.93;4.05;;;15.50;54.90;;;;;;5093388;28;20068;-69
2021/05/03 09:37:34;;;;;;;5.03;3.85;;;14.80;54.90;;;;;;5067058;28;20024;-69
2021/05/03 09:40:06;;;;;;;3.58;3.20;;;14.20;55.30;;;;;;5085572;28;20024;-68
2021/05/03 09:42:52;;;;;;;4.07;3.30;;;13.70;56.70;;;;;;5075511;28;20029;-69
2021/05/03 09:45:22;;;;;;;4.60;3.75;;;13.20;55.90;;;;;;5072170;28;20063;-68
2021/05/03 09:47:54;;;;;;;5.18;3.78;;;12.70;57.00;;;;;;5072484;28;20383;-68
2021/05/03 09:50:23;;;;;;;6.50;3.90;;;12.40;56.70;;;;;;5096247;28;20039;-68
2021/05/03 09:53:00;;;;;;;12.32;7.50;;;12.00;58.00;;;;;;5080422;28;20031;-68
2021/05/03 09:55:36;;;;;;;5.03;3.55;;;12.00;58.50;;;;;;5097368;28;20364;-69
2021/05/03 09:58:12;;;;;;;4.57;4.03;;;11.80;58.50;;;;;;5076457;28;20534;-68
2021/05/03 10:00:48;;;;;;;4.07;3.63;;;11.80;59.00;;;;;;5085174;28;20085;-69
2021/05/03 10:03:32;;;;;;;4.85;4.03;;;11.90;59.20;;;;;;5092680;28;20028;-69
2021/05/03 10:05:58;;;;;;;4.32;3.40;;;12.40;59.20;;;;;;5084529;28;20027;-68
2021/05/03 10:08:25;;;;;;;4.13;3.67;;;13.00;60.10;;;;;;5069231;28;20035;-69
2021/05/03 10:10:53;;;;;;;4.13;3.25;;;13.50;59.80;;;;;;5083799;28;20058;-69
2021/05/03 10:13:20;;;;;;;4.75;3.17;;;14.10;59.30;;;;;;5075764;28;20472;-69
2021/05/03 10:15:47;;;;;;;6.03;3.22;;;14.60;59.30;;;;;;5085534;28;20369;-69
2021/05/03 10:18:18;;;;;;;3.20;2.90;;;14.70;57.90;;;;;;5091850;28;20020;-68
2021/05/03 10:20:45;;;;;;;3.05;2.70;;;14.60;55.90;;;;;;5087297;28;20094;-69
2021/05/03 10:23:12;;;;;;;4.28;2.80;;;14.30;56.00;;;;;;5087946;28;20685;-69
2021/05/03 10:25:38;;;;;;;4.03;2.53;;;13.90;54.80;;;;;;5082977;28;20464;-68
2021/05/03 10:28:03;;;;;;;8.40;3.20;;;13.50;54.50;;;;;;5058675;28;20044;-68
2021/05/03 10:30:29;;;;;;;4.13;2.78;;;13.20;54.30;;;;;;5093777;28;20021;-68
2021/05/03 10:33:06;;;;;;;3.90;2.85;;;12.90;55.00;;;;;;5090624;28;20028;-68
2021/05/03 10:35:36;;;;;;;4.15;2.70;;;12.80;55.10;;;;;;5092089;28;20780;-68
2021/05/03 10:38:03;;;;;;;3.30;2.80;;;12.80;55.80;;;;;;5078430;28;20035;-69
2021/05/03 10:40:35;;;;;;;4.32;3.17;;;12.90;55.70;;;;;;5087722;28;20024;-67
2021/05/03 10:43:04;;;;;;;4.38;3.20;;;13.00;55.10;;;;;;5077650;28;20024;-68
2021/05/03 10:49:05;;;;;;;3.30;2.95;;;13.20;55.30;;;;;;5077485;28;20031;-68
2021/05/03 10:51:45;;;;;;;4.80;3.25;;;13.40;55.10;;;;;;5059371;28;20020;-68
2021/05/03 10:54:29;;;;;;;7.13;3.63;;;13.60;55.00;;;;;;5083670;28;20019;-68
2021/05/03 10:56:57;;;;;;;3.05;2.65;;;13.60;55.20;;;;;;5079991;28;20029;-68
2021/05/03 10:59:42;;;;;;;4.40;2.72;;;13.60;55.40;;;;;;5071387;28;20091;-68
2021/05/03 11:02:14;;;;;;;4.60;3.10;;;13.60;55.00;;;;;;5069277;28;20039;-68
2021/05/03 11:05:24;;;;;;;4.65;3.10;;;13.70;54.80;;;;;;5087095;28;20031;-68
2021/05/03 11:08:21;;;;;;;4.75;3.40;;;13.80;54.30;;;;;;5068312;28;20536;-68
2021/05/03 11:11:06;;;;;;;3.47;2.97;;;14.10;54.90;;;;;;5060783;28;20020;-68
2021/05/03 11:13:57;;;;;;;3.08;2.78;;;14.50;54.80;;;;;;5077445;28;20500;-68
2021/05/03 11:16:29;;;;;;;3.15;2.80;;;14.70;53.70;;;;;;5065334;28;20040;-68
2021/05/03 11:19:00;;;;;;;3.22;2.92;;;14.80;53.80;;;;;;5087369;28;20361;-69
2021/05/03 11:21:48;;;;;;;4.03;2.90;;;14.90;54.50;;;;;;5088224;28;20031;-68
2021/05/03 11:25:09;;;;;;;3.58;3.10;;;14.90;53.50;;;;;;5083989;28;20034;-69
2021/05/03 11:32:40;;;;;;;25.35;16.88;;;14.60;53.70;;;;;;5080559;28;20036;-69
2021/05/03 11:35:24;;;;;;;4.97;3.20;;;14.40;53.10;;;;;;5079680;28;20024;-68
2021/05/03 11:45:24;;;;;;;4.35;3.20;;;14.10;53.60;;;;;;5084751;28;20046;-68
2021/05/03 11:47:53;;;;;;;5.93;3.05;;;14.00;52.70;;;;;;5091393;28;20049;-68
2021/05/03 11:50:23;;;;;;;3.70;2.65;;;13.80;52.20;;;;;;5078675;28;20581;-69
2021/05/03 11:52:49;;;;;;;4.10;2.33;;;13.70;52.10;;;;;;5071764;28;20644;-68
2021/05/03 11:55:19;;;;;;;3.15;2.58;;;13.60;52.20;;;;;;5076268;28;20031;-68
2021/05/03 11:57:47;;;;;;;2.40;2.20;;;13.50;52.40;;;;;;5089878;28;20027;-68
2021/05/03 12:00:15;;;;;;;2.50;2.30;;;13.40;52.20;;;;;;5078124;28;20036;-68
2021/05/03 12:02:41;;;;;;;3.15;2.10;;;13.40;51.60;;;;;;5090012;28;20050;-68
2021/05/03 12:05:18;;;;;;;3.05;2.03;;;13.30;51.40;;;;;;5052332;28;20040;-68
2021/05/03 12:07:45;;;;;;;2.85;2.42;;;13.40;51.60;;;;;;5075108;28;20028;-68
2021/05/03 12:10:11;;;;;;;3.33;2.30;;;13.50;52.10;;;;;;5081537;28;20437;-68
2021/05/03 12:12:40;;;;;;;3.63;2.35;;;13.50;52.00;;;;;;5089934;28;20113;-68
2021/05/03 12:15:10;;;;;;;2.67;2.40;;;13.60;51.20;;;;;;5089834;28;20028;-69
2021/05/03 12:17:36;;;;;;;3.17;2.17;;;13.60;51.00;;;;;;5074352;28;20111;-68
2021/05/03 12:20:04;;;;;;;3.40;2.40;;;13.70;51.50;;;;;;5083986;28;20050;-70
2021/05/03 12:22:30;;;;;;;2.58;2.38;;;13.90;51.20;;;;;;5071627;28;20028;-68
2021/05/03 12:25:22;;;;;;;3.78;2.05;;;14.10;51.20;;;;;;5090052;28;20182;-68
2021/05/03 12:27:48;;;;;;;2.85;1.98;;;14.10;50.30;;;;;;5084033;28;20036;-69
2021/05/03 12:30:14;;;;;;;2.80;2.53;;;14.10;51.40;;;;;;5090709;28;20035;-68
2021/05/03 12:32:42;;;;;;;2.58;2.38;;;14.10;50.70;;;;;;5089923;28;20069;-69
2021/05/03 12:35:17;;;;;;;2.97;2.28;;;14.20;50.30;;;;;;5089950;28;20024;-68
2021/05/03 12:37:43;;;;;;;2.38;2.15;;;14.20;50.00;;;;;;5071482;28;20051;-68
2021/05/03 12:40:12;;;;;;;3.00;2.70;;;14.40;49.70;;;;;;5086041;28;20024;-68
2021/05/03 12:42:54;;;;;;;4.75;2.72;;;14.60;49.60;;;;;;5060439;28;20020;-68
2021/05/03 12:45:42;;;;;;;2.30;2.10;;;14.80;50.20;;;;;;5084152;28;20030;-68
2021/05/03 12:56:52;;;;;;;2.28;2.03;;;15.60;48.00;;;;;;5100032;28;20073;-68
2021/05/03 12:59:32;;;;;;;3.08;2.00;;;15.50;48.80;;;;;;5092096;28;20027;-68
2021/05/03 13:05:13;;;;;;;3.10;1.88;;;15.60;48.10;;;;;;5090789;28;20051;-68
2021/05/03 13:29:36;;;;;;;3.83;2.03;;;15.20;48.50;;;;;;5103583;28;20034;-67
2021/05/03 13:32:03;;;;;;;2.15;1.83;;;15.10;47.80;;;;;;5094853;28;20024;-67
2021/05/03 13:34:29;;;;;;;2.53;2.22;;;15.00;47.80;;;;;;5068405;28;20029;-67
2021/05/03 13:36:55;;;;;;;2.70;2.05;;;14.90;47.20;;;;;;5094417;28;20372;-67
2021/05/03 13:39:20;;;;;;;1.85;1.75;;;14.70;46.80;;;;;;5093816;28;20027;-68
2021/05/03 13:41:47;;;;;;;4.00;2.45;;;14.60;47.10;;;;;;5088727;28;20387;-68
2021/05/03 13:44:14;;;;;;;2.90;2.25;;;14.50;46.60;;;;;;5091559;28;20028;-67
2021/05/03 13:46:41;;;;;;;2.35;1.95;;;14.30;46.80;;;;;;5071708;28;20377;-67
2021/05/03 13:49:06;;;;;;;2.78;2.00;;;14.30;47.30;;;;;;5106080;28;20103;-67
2021/05/03 13:51:32;;;;;;;2.03;1.77;;;14.30;47.30;;;;;;5094293;28;20119;-67
2021/05/03 13:53:59;;;;;;;3.13;1.92;;;14.30;47.40;;;;;;5091040;28;20012;-67
2021/05/03 13:56:25;;;;;;;3.53;2.10;;;14.20;47.40;;;;;;5096011;28;20016;-69
2021/05/03 13:58:50;;;;;;;1.50;1.40;;;14.20;47.00;;;;;;5102419;28;20032;-67
2021/05/03 14:01:17;;;;;;;1.85;1.63;;;14.10;47.70;;;;;;5091709;28;20020;-67
2021/05/03 14:03:42;;;;;;;1.60;1.50;;;14.10;47.30;;;;;;5086968;28;20039;-67
2021/05/03 14:06:12;;;;;;;2.25;1.70;;;14.10;47.10;;;;;;5086142;28;20020;-67
2021/05/03 14:08:39;;;;;;;2.63;1.80;;;14.10;46.70;;;;;;5091956;28;20032;-67